createdAt,value
2023-02-04T00:03:06.793Z,56.70
2023-02-04T00:05:36.326Z,57.00
2023-02-04T00:08:04.765Z,57.70
2023-02-04T00:10:33.282Z,57.10
2023-02-04T00:13:01.875Z,57.20
2023-02-04T00:15:30.048Z,57.30
2023-02-04T00:17:58.180Z,57.40
2023-02-04T00:20:26.264Z,57.30
2023-02-04T00:22:56.505Z,57.40
2023-02-04T00:25:24.556Z,57.40
2023-02-04T00:27:52.743Z,57.50
2023-02-04T00:30:21.282Z,57.60
2023-02-04T00:32:49.617Z,57.60
2023-02-04T00:35:17.803Z,57.70
2023-02-04T00:37:45.843Z,57.70
2023-02-04T00:40:15.638Z,57.70
2023-02-04T00:42:43.754Z,57.70
2023-02-04T00:45:13.674Z,57.80
2023-02-04T00:47:42.359Z,58.40
2023-02-04T00:50:11.020Z,58.00
2023-02-04T00:52:39.092Z,58.00
2023-02-04T00:55:10.354Z,57.90
2023-02-04T00:57:40.070Z,58.00
2023-02-04T01:00:09.018Z,58.00
2023-02-04T01:02:37.200Z,58.00
2023-02-04T01:05:05.488Z,58.10
2023-02-04T01:07:33.589Z,58.10
2023-02-04T01:10:01.889Z,58.10
2023-02-04T01:12:29.920Z,58.00
2023-02-04T01:14:59.742Z,58.10
2023-02-04T01:17:28.026Z,58.10
2023-02-04T01:19:56.061Z,58.10
2023-02-04T01:22:24.107Z,58.10
2023-02-04T01:24:52.202Z,58.10
2023-02-04T01:27:20.230Z,58.10
2023-02-04T01:29:48.279Z,58.10
2023-02-04T01:32:17.711Z,58.10
2023-02-04T01:34:45.750Z,58.10
2023-02-04T01:37:13.805Z,58.30
2023-02-04T01:39:41.832Z,58.10
2023-02-04T01:42:10.061Z,58.00
2023-02-04T01:44:38.142Z,58.10
2023-02-04T01:47:06.239Z,58.10
2023-02-04T01:49:35.775Z,58.10
2023-02-04T01:52:04.703Z,58.10
2023-02-04T01:54:33.345Z,58.10
2023-02-04T01:57:01.538Z,58.10
2023-02-04T01:59:29.686Z,58.20
2023-02-04T02:01:57.719Z,58.20
2023-02-04T02:04:30.689Z,58.20
2023-02-04T02:07:04.190Z,58.20
2023-02-04T02:09:34.037Z,58.80
2023-02-04T02:12:04.121Z,58.10
2023-02-04T02:14:32.279Z,58.10
2023-02-04T02:17:00.527Z,58.20
2023-02-04T02:19:34.725Z,58.20
2023-02-04T02:22:09.763Z,58.20
2023-02-04T02:24:39.174Z,58.20
2023-02-04T02:27:10.124Z,58.20
2023-02-04T02:29:40.304Z,58.20
2023-02-04T02:32:09.529Z,58.30
2023-02-04T02:34:39.362Z,58.30
2023-02-04T02:37:08.956Z,58.30
2023-02-04T02:39:39.986Z,58.30
2023-02-04T02:42:08.439Z,58.30
2023-02-04T02:44:36.600Z,58.30
2023-02-04T02:47:04.733Z,58.40
2023-02-04T02:49:34.983Z,58.40
2023-02-04T02:52:03.206Z,58.50
2023-02-04T02:54:34.133Z,58.50
2023-02-04T02:57:03.616Z,58.50
2023-02-04T02:59:32.013Z,58.60
2023-02-04T03:02:03.596Z,58.60
2023-02-04T03:04:33.397Z,58.60
2023-02-04T03:07:01.768Z,58.70
2023-02-04T03:09:30.789Z,58.70
2023-02-04T03:11:58.853Z,58.70
2023-02-04T03:14:29.054Z,58.70
2023-02-04T03:16:57.531Z,58.80
2023-02-04T03:19:26.841Z,58.90
2023-02-04T03:21:56.659Z,58.80
2023-02-04T03:24:25.098Z,58.90
2023-02-04T03:26:53.462Z,58.90
2023-02-04T03:29:21.572Z,59.00
2023-02-04T03:31:51.123Z,59.00
2023-02-04T03:34:19.279Z,59.10
2023-02-04T03:36:47.332Z,59.10
2023-02-04T03:39:15.434Z,59.10
2023-02-04T03:41:43.431Z,59.20
2023-02-04T03:44:11.622Z,59.20
2023-02-04T03:46:39.650Z,59.30
2023-02-04T03:49:09.086Z,59.30
2023-02-04T03:51:37.178Z,59.30
2023-02-04T03:54:05.401Z,59.30
2023-02-04T03:56:33.408Z,59.30
2023-02-04T03:59:01.532Z,59.30
2023-02-04T04:01:29.597Z,59.40
2023-02-04T04:03:57.702Z,59.40
2023-02-04T04:06:27.197Z,59.50
2023-02-04T04:08:55.242Z,59.50
2023-02-04T04:11:23.449Z,59.50
2023-02-04T04:13:51.797Z,59.60
2023-02-04T04:16:20.809Z,59.60
2023-02-04T04:18:49.280Z,59.60
2023-02-04T04:21:17.330Z,59.60
2023-02-04T04:23:46.738Z,59.60
2023-02-04T04:26:14.833Z,59.70
2023-02-04T04:28:42.861Z,59.70
2023-02-04T04:31:11.134Z,59.70
2023-02-04T04:33:39.884Z,59.70
2023-02-04T04:36:09.015Z,59.70
2023-02-04T04:38:37.057Z,59.80
2023-02-04T04:41:06.641Z,59.80
2023-02-04T04:43:34.697Z,59.80
2023-02-04T04:46:02.738Z,59.90
2023-02-04T04:48:30.835Z,59.90
2023-02-04T04:50:59.365Z,59.90
2023-02-04T04:53:27.511Z,59.90
2023-02-04T04:55:55.743Z,59.90
2023-02-04T04:58:25.203Z,59.90
2023-02-04T05:00:53.302Z,59.90
2023-02-04T05:03:21.434Z,59.90
2023-02-04T05:05:49.464Z,60.00
2023-02-04T05:08:19.140Z,60.00
2023-02-04T05:10:47.277Z,60.00
2023-02-04T05:13:15.381Z,60.10
2023-02-04T05:15:44.755Z,60.20
2023-02-04T05:18:12.871Z,60.30
2023-02-04T05:20:40.895Z,60.40
2023-02-04T05:23:08.977Z,60.50
2023-02-04T05:25:37.008Z,60.50
2023-02-04T05:28:05.908Z,60.50
2023-02-04T05:30:34.295Z,60.50
2023-02-04T05:33:03.976Z,60.30
2023-02-04T05:35:32.007Z,60.30
2023-02-04T05:38:00.174Z,60.30
2023-02-04T05:40:28.306Z,60.40
2023-02-04T05:42:56.400Z,60.40
2023-02-04T05:45:24.456Z,60.40
2023-02-04T05:47:52.661Z,60.50
2023-02-04T05:50:22.170Z,60.50
2023-02-04T05:52:50.387Z,60.60
2023-02-04T05:55:18.602Z,60.60
2023-02-04T05:57:46.713Z,60.60
2023-02-04T06:00:15.601Z,60.50
2023-02-04T06:02:43.626Z,60.60
2023-02-04T06:05:11.681Z,60.60
2023-02-04T06:07:41.095Z,60.60
2023-02-04T06:10:10.722Z,60.50
2023-02-04T06:12:38.918Z,60.50
2023-02-04T06:15:08.231Z,60.40
2023-02-04T06:17:36.246Z,61.10
2023-02-04T06:20:04.515Z,60.40
2023-02-04T06:22:32.581Z,60.50
2023-02-04T06:25:01.991Z,60.50
2023-02-04T06:27:30.023Z,60.40
2023-02-04T06:32:26.442Z,60.00
2023-02-04T06:34:54.516Z,60.40
2023-02-04T06:37:24.302Z,60.60
2023-02-04T06:39:54.489Z,60.50
2023-02-04T06:42:25.258Z,60.60
2023-02-04T06:44:53.329Z,60.60
2023-02-04T06:47:21.720Z,60.60
2023-02-04T06:49:49.846Z,60.60
2023-02-04T06:52:17.873Z,60.60
2023-02-04T06:54:45.913Z,60.50
2023-02-04T06:57:13.967Z,60.60
2023-02-04T06:59:44.036Z,60.50
2023-02-04T07:02:13.206Z,60.60
2023-02-04T07:04:42.095Z,60.60
2023-02-04T07:07:10.188Z,60.60
2023-02-04T07:09:40.606Z,60.50
2023-02-04T07:12:08.801Z,60.60
2023-02-04T07:14:36.858Z,60.60
2023-02-04T07:17:06.228Z,60.60
2023-02-04T07:19:35.263Z,60.80
2023-02-04T07:22:03.330Z,60.70
2023-02-04T07:24:31.587Z,60.70
2023-02-04T07:27:01.681Z,60.70
2023-02-04T07:29:30.589Z,60.70
2023-02-04T07:31:58.717Z,60.60
2023-02-04T07:34:28.348Z,60.60
2023-02-04T07:36:56.453Z,60.50
2023-02-04T07:39:24.613Z,60.40
2023-02-04T07:41:52.646Z,60.50
2023-02-04T07:44:20.729Z,60.40
2023-02-04T07:46:48.751Z,60.40
2023-02-04T07:49:16.839Z,60.40
2023-02-04T07:51:46.249Z,60.40
2023-02-04T07:54:14.429Z,60.40
2023-02-04T07:56:42.467Z,60.50
2023-02-04T07:59:10.550Z,60.50
2023-02-04T08:01:38.600Z,60.60
2023-02-04T08:04:06.824Z,60.60
2023-02-04T08:06:34.865Z,60.60
2023-02-04T08:09:04.302Z,60.60
2023-02-04T08:11:32.370Z,60.80
2023-02-04T08:14:00.486Z,60.80
2023-02-04T08:16:28.598Z,60.80
2023-02-04T08:18:56.670Z,60.80
2023-02-04T08:21:24.694Z,60.80
2023-02-04T08:23:52.800Z,60.70
2023-02-04T08:26:22.182Z,60.50
2023-02-04T08:28:50.225Z,60.40
2023-02-04T08:31:18.327Z,60.40
2023-02-04T08:33:46.493Z,60.20
2023-02-04T08:36:14.540Z,60.00
2023-02-04T08:38:44.603Z,59.20
2023-02-04T08:41:12.986Z,59.10
2023-02-04T08:43:42.555Z,59.00
2023-02-04T08:46:10.822Z,58.90
2023-02-04T08:48:38.921Z,58.90
2023-02-04T08:51:07.276Z,58.80
2023-02-04T08:53:35.329Z,58.70
2023-02-04T08:56:03.367Z,58.60
2023-02-04T08:58:31.481Z,58.60
2023-02-04T09:01:00.917Z,58.50
2023-02-04T09:03:29.244Z,58.50
2023-02-04T09:05:57.274Z,58.40
2023-02-04T09:08:25.371Z,58.40
2023-02-04T09:10:53.411Z,58.40
2023-02-04T09:13:21.514Z,58.20
2023-02-04T09:15:49.577Z,58.20
2023-02-04T09:18:21.946Z,58.20
2023-02-04T09:20:50.667Z,58.10
2023-02-04T09:23:18.807Z,58.00
2023-02-04T09:25:47.547Z,58.00
2023-02-04T09:28:17.179Z,58.00
2023-02-04T09:30:46.879Z,57.90
2023-02-04T09:33:17.636Z,57.80
2023-02-04T09:35:47.086Z,57.90
2023-02-04T09:38:15.321Z,58.00
2023-02-04T09:40:48.163Z,58.00
2023-02-04T09:43:21.301Z,58.00
2023-02-04T09:45:50.817Z,58.10
2023-02-04T09:48:19.705Z,58.00
2023-02-04T09:50:49.518Z,57.90
2023-02-04T09:53:22.488Z,57.70
2023-02-04T09:55:52.292Z,57.60
2023-02-04T09:58:21.884Z,57.60
2023-02-04T10:00:57.772Z,57.60
2023-02-04T10:03:25.853Z,57.50
2023-02-04T10:05:55.345Z,57.40
2023-02-04T10:08:29.793Z,57.40
2023-02-04T10:10:58.280Z,57.20
2023-02-04T10:13:32.724Z,57.00
2023-02-04T10:16:02.331Z,56.90
2023-02-04T10:18:33.695Z,56.90
2023-02-04T10:21:15.564Z,56.80
2023-02-04T10:23:45.449Z,56.90
2023-02-04T10:26:13.882Z,56.70
2023-02-04T10:28:42.853Z,56.60
2023-02-04T10:31:36.091Z,56.30
2023-02-04T10:34:10.712Z,55.90
2023-02-04T10:36:40.963Z,55.70
2023-02-04T10:39:13.979Z,55.60
2023-02-04T10:41:49.658Z,55.20
2023-02-04T10:44:19.968Z,55.20
2023-02-04T10:46:48.412Z,55.30
2023-02-04T10:49:21.910Z,55.10
2023-02-04T10:51:52.798Z,54.80
2023-02-04T10:54:30.037Z,54.50
2023-02-04T10:56:59.275Z,54.30
2023-02-04T10:59:29.074Z,53.90
2023-02-04T11:01:59.009Z,53.50
2023-02-04T11:04:28.815Z,53.20
2023-02-04T11:06:58.234Z,53.00
2023-02-04T11:09:26.373Z,53.00
2023-02-04T11:11:54.414Z,53.10
2023-02-04T11:14:29.137Z,53.00
2023-02-04T11:17:00.841Z,52.80
2023-02-04T11:19:38.582Z,52.70
2023-02-04T11:22:21.758Z,52.20
2023-02-04T11:24:50.341Z,52.20
2023-02-04T11:27:24.386Z,52.30
2023-02-04T11:29:52.561Z,52.00
2023-02-04T11:32:37.827Z,51.70
2023-02-04T11:35:23.630Z,51.30
2023-02-04T11:37:54.550Z,51.00
2023-02-04T11:40:32.349Z,51.00
2023-02-04T11:43:10.234Z,50.60
2023-02-04T11:45:39.752Z,50.20
2023-02-04T11:48:14.363Z,50.00
2023-02-04T11:50:42.936Z,49.50
2023-02-04T11:53:13.226Z,49.20
2023-02-04T11:55:47.724Z,48.90
2023-02-04T11:58:17.732Z,49.30
2023-02-04T12:00:46.251Z,48.90
2023-02-04T12:03:26.597Z,48.70
2023-02-04T12:05:56.129Z,48.20
2023-02-04T12:08:33.487Z,48.20
2023-02-04T12:11:08.346Z,47.80
2023-02-04T12:21:12.368Z,46.70
2023-02-04T12:23:43.074Z,46.80
2023-02-04T12:26:11.234Z,46.00
2023-02-04T12:28:39.405Z,44.70
2023-02-04T12:31:07.595Z,44.70
2023-02-04T12:33:35.774Z,43.50
2023-02-04T12:36:04.658Z,42.10
2023-02-04T12:38:32.724Z,40.50
2023-02-04T12:41:02.112Z,39.20
2023-02-04T12:43:30.316Z,37.10
2023-02-04T12:45:58.364Z,37.10
2023-02-04T12:48:26.993Z,35.00
2023-02-04T12:50:55.299Z,35.30
2023-02-04T12:53:23.612Z,34.10
2023-02-04T12:55:51.654Z,33.60
2023-02-04T12:58:21.092Z,33.00
2023-02-04T13:00:49.160Z,32.20
2023-02-04T13:03:17.922Z,31.70
2023-02-04T13:05:46.013Z,31.10
2023-02-04T13:08:14.140Z,30.60
2023-02-04T13:10:42.866Z,30.00
2023-02-04T13:13:10.996Z,29.50
2023-02-04T13:15:41.133Z,29.20
2023-02-04T13:18:09.339Z,28.70
2023-02-04T13:20:37.385Z,28.40
2023-02-04T13:23:05.535Z,28.20
2023-02-04T13:25:33.908Z,28.00
2023-02-04T13:28:02.267Z,27.80
2023-02-04T13:30:30.353Z,27.70
2023-02-04T13:33:00.226Z,27.60
2023-02-04T13:35:28.258Z,27.50
2023-02-04T13:37:56.656Z,27.60
2023-02-04T13:40:24.750Z,27.70
2023-02-04T13:42:52.775Z,27.90
2023-02-04T13:45:21.144Z,28.00
2023-02-04T13:47:49.288Z,28.40
2023-02-04T13:50:19.115Z,28.70
2023-02-04T13:52:47.233Z,29.00
2023-02-04T13:55:15.713Z,29.30
2023-02-04T13:57:43.781Z,29.50
2023-02-04T14:00:13.220Z,29.90
2023-02-04T14:02:41.250Z,30.00
2023-02-04T14:05:09.651Z,30.30
2023-02-04T14:07:39.049Z,30.40
2023-02-04T14:10:07.841Z,30.70
2023-02-04T14:12:35.990Z,31.00
2023-02-04T14:17:32.360Z,31.10
2023-02-04T14:20:00.444Z,32.00
2023-02-04T14:22:28.485Z,32.10
2023-02-04T14:27:27.284Z,32.20
2023-02-04T14:29:55.368Z,32.90
2023-02-04T14:32:23.442Z,33.20
2023-02-04T14:34:51.591Z,33.50
2023-02-04T14:37:19.611Z,33.70
2023-02-04T14:39:47.647Z,33.70
2023-02-04T14:42:17.062Z,34.00
2023-02-04T14:44:45.116Z,34.20
2023-02-04T14:47:13.233Z,34.60
2023-02-04T14:49:41.270Z,34.90
2023-02-04T14:52:11.351Z,35.80
2023-02-04T14:54:40.663Z,36.50
2023-02-04T14:57:11.309Z,37.20
2023-02-04T14:59:40.778Z,37.80
2023-02-04T15:02:08.995Z,38.40
2023-02-04T15:04:37.305Z,38.90
2023-02-04T15:07:05.357Z,39.20
2023-02-04T15:09:33.523Z,39.70
2023-02-04T15:14:30.197Z,40.40
2023-02-04T15:16:59.669Z,41.20
2023-02-04T15:19:27.749Z,41.60
2023-02-04T15:21:55.770Z,41.80
2023-02-04T15:24:26.221Z,41.80
2023-02-04T15:26:54.265Z,41.80
2023-02-04T15:29:22.402Z,42.00
2023-02-04T15:34:20.402Z,42.40
2023-02-04T15:36:48.520Z,43.20
2023-02-04T15:41:44.986Z,43.50
2023-02-04T15:44:13.170Z,44.50
2023-02-04T15:46:41.195Z,44.80
2023-02-04T15:49:09.463Z,45.20
2023-02-04T15:51:38.881Z,45.50
2023-02-04T15:54:07.022Z,45.60
2023-02-04T15:56:35.090Z,46.10
2023-02-04T15:59:03.200Z,46.30
2023-02-04T16:01:31.372Z,46.50
2023-02-04T16:04:00.747Z,46.90
2023-02-04T16:06:28.848Z,47.10
2023-02-04T16:08:58.263Z,47.20
2023-02-04T16:11:26.405Z,47.50
2023-02-04T16:13:54.511Z,47.70
2023-02-04T16:16:22.630Z,48.50
2023-02-04T16:18:50.764Z,48.10
2023-02-04T16:21:18.786Z,48.30
2023-02-04T16:23:47.340Z,48.40
2023-02-04T16:26:16.733Z,48.70
2023-02-04T16:28:47.280Z,48.90
2023-02-04T16:31:15.694Z,49.00
2023-02-04T16:33:43.856Z,49.10
2023-02-04T16:36:13.698Z,49.30
2023-02-04T16:38:42.890Z,49.40
2023-02-04T16:41:14.204Z,49.60
2023-02-04T16:43:43.950Z,49.80
2023-02-04T16:46:15.073Z,49.90
2023-02-04T16:51:11.774Z,49.70
2023-02-04T16:53:40.013Z,50.30
2023-02-04T16:56:08.502Z,50.40
2023-02-04T16:58:36.632Z,50.60
2023-02-04T17:01:06.511Z,50.70
2023-02-04T17:03:34.628Z,51.00
2023-02-04T17:06:02.778Z,51.10
2023-02-04T17:08:30.862Z,51.30
2023-02-04T17:11:16.519Z,51.40
2023-02-04T17:13:44.630Z,51.50
2023-02-04T17:16:14.485Z,51.50
2023-02-04T17:18:42.612Z,51.70
2023-02-04T17:21:10.682Z,51.70
2023-02-04T17:23:38.993Z,51.80
2023-02-04T17:26:07.066Z,51.80
2023-02-04T17:28:35.138Z,51.90
2023-02-04T17:31:03.275Z,52.00
2023-02-04T17:33:33.079Z,52.20
2023-02-04T17:36:01.210Z,51.90
2023-02-04T17:38:30.351Z,52.40
2023-02-04T17:40:58.501Z,52.50
2023-02-04T17:43:26.810Z,52.70
2023-02-04T17:45:54.876Z,52.90
2023-02-04T17:48:23.079Z,53.00
2023-02-04T17:50:53.309Z,53.10
2023-02-04T17:53:21.674Z,53.30
2023-02-04T17:55:49.716Z,53.40
2023-02-04T17:58:21.964Z,53.50
2023-02-04T18:00:51.065Z,54.40
2023-02-04T18:03:22.181Z,54.50
2023-02-04T18:05:53.306Z,54.60
2023-02-04T18:08:24.535Z,54.70
2023-02-04T18:10:54.320Z,54.70
2023-02-04T18:13:24.520Z,54.90
2023-02-04T18:15:54.175Z,55.00
2023-02-04T18:18:24.676Z,55.10
2023-02-04T18:21:00.312Z,55.20
2023-02-04T18:23:30.602Z,55.30
2023-02-04T18:26:06.244Z,55.30
2023-02-04T18:28:36.734Z,55.40
2023-02-04T18:31:19.741Z,55.50
2023-02-04T18:33:48.263Z,55.70
2023-02-04T18:36:23.074Z,55.70
2023-02-04T18:38:51.628Z,55.80
2023-02-04T18:41:33.910Z,55.90
2023-02-04T18:44:17.708Z,56.10
2023-02-04T18:46:48.869Z,56.10
2023-02-04T18:49:25.625Z,56.10
2023-02-04T18:51:55.932Z,56.20
2023-02-04T18:54:37.380Z,56.20
2023-02-04T18:57:28.988Z,56.40
2023-02-04T19:00:18.888Z,56.40
2023-02-04T19:02:50.594Z,56.40
2023-02-04T19:05:28.435Z,56.40
2023-02-04T19:08:26.468Z,56.60
2023-02-04T19:10:56.333Z,56.70
2023-02-04T19:13:27.413Z,56.70
2023-02-04T19:16:01.206Z,56.80
2023-02-04T19:18:31.300Z,56.90
2023-02-04T19:21:23.358Z,56.80
2023-02-04T19:23:57.966Z,56.90
2023-02-04T19:26:36.583Z,56.80
2023-02-04T19:29:38.516Z,56.90
2023-02-04T19:32:24.532Z,57.00
2023-02-04T19:34:53.971Z,56.90
2023-02-04T19:37:26.500Z,56.90
2023-02-04T19:39:56.831Z,57.00
2023-02-04T19:42:30.269Z,57.00
2023-02-04T19:45:00.436Z,57.00
2023-02-04T19:47:30.731Z,56.90
2023-02-04T19:50:22.358Z,57.00
2023-02-04T19:52:52.931Z,57.00
2023-02-04T19:55:27.318Z,57.00
2023-02-04T19:57:58.567Z,57.00
2023-02-04T20:00:46.744Z,56.90
2023-02-04T20:03:42.527Z,56.90
2023-02-04T20:06:30.967Z,56.80
2023-02-04T20:09:01.713Z,56.60
2023-02-04T20:11:56.944Z,56.50
2023-02-04T20:14:36.574Z,56.30
2023-02-04T20:17:16.050Z,56.20
2023-02-04T20:19:44.095Z,56.00
2023-02-04T20:22:46.625Z,55.90
2023-02-04T20:25:43.701Z,55.80
2023-02-04T20:28:38.410Z,55.60
2023-02-04T20:31:28.586Z,55.50
2023-02-04T20:33:59.307Z,55.30
2023-02-04T20:36:48.373Z,55.10
2023-02-04T20:39:34.179Z,55.00
2023-02-04T20:42:30.787Z,54.90
2023-02-04T20:45:13.987Z,54.80
2023-02-04T20:47:42.016Z,54.60
2023-02-04T20:50:44.529Z,54.40
2023-02-04T20:53:24.692Z,54.80
2023-02-04T20:55:55.393Z,54.10
2023-02-04T20:58:25.647Z,53.90
2023-02-04T21:00:56.571Z,53.70
2023-02-04T21:03:27.806Z,53.50
2023-02-04T21:05:57.391Z,53.40
2023-02-04T21:08:37.194Z,53.20
2023-02-04T21:11:05.716Z,53.00
2023-02-04T21:13:34.205Z,52.80
2023-02-04T21:16:04.153Z,52.70
2023-02-04T21:18:34.507Z,52.60
2023-02-04T21:21:03.069Z,52.40
2023-02-04T21:23:31.223Z,52.10
2023-02-04T21:25:59.256Z,52.00
2023-02-04T21:28:27.422Z,51.90
2023-02-04T21:30:55.626Z,51.80
2023-02-04T21:33:25.113Z,51.70
2023-02-04T21:35:53.210Z,51.50
2023-02-04T21:38:21.352Z,51.40
2023-02-04T21:40:49.657Z,51.20
2023-02-04T21:43:17.778Z,51.20
2023-02-04T21:45:45.862Z,51.10
2023-02-04T21:48:14.802Z,51.00
2023-02-04T21:50:44.310Z,51.00
2023-02-04T21:53:12.757Z,50.90
2023-02-04T21:55:40.998Z,50.80
2023-02-04T21:58:09.159Z,50.80
2023-02-04T22:00:37.195Z,50.70
2023-02-04T22:03:06.177Z,50.70
2023-02-04T22:05:34.937Z,50.70
2023-02-04T22:08:04.661Z,50.70
2023-02-04T22:10:32.701Z,50.70
2023-02-04T22:13:00.899Z,50.70
2023-02-04T22:15:29.187Z,50.70
2023-02-04T22:17:57.379Z,50.70
2023-02-04T22:20:26.018Z,50.60
2023-02-04T22:22:54.461Z,50.60
2023-02-04T22:25:24.169Z,50.60
2023-02-04T22:27:52.238Z,50.60
2023-02-04T22:30:20.989Z,50.50
2023-02-04T22:32:49.096Z,50.50
2023-02-04T22:35:17.481Z,50.60
2023-02-04T22:37:45.528Z,50.60
2023-02-04T22:40:13.926Z,50.60
2023-02-04T22:42:43.317Z,50.50
2023-02-04T22:45:11.702Z,50.50
2023-02-04T22:47:39.869Z,50.60
2023-02-04T22:50:09.348Z,50.60
2023-02-04T22:52:37.447Z,50.70
2023-02-04T22:55:06.051Z,50.70
2023-02-04T22:57:34.109Z,50.70
2023-02-04T23:00:05.805Z,50.70
2023-02-04T23:02:33.871Z,50.80
2023-02-04T23:05:01.927Z,50.80
2023-02-04T23:07:30.116Z,50.80
2023-02-04T23:09:58.242Z,50.80
2023-02-04T23:12:26.660Z,50.90
2023-02-04T23:14:54.761Z,50.90
2023-02-04T23:17:24.248Z,50.90
2023-02-04T23:19:52.301Z,50.90
2023-02-04T23:22:20.386Z,50.90
2023-02-04T23:24:49.514Z,51.00
2023-02-04T23:27:17.839Z,51.00
2023-02-04T23:29:45.950Z,51.00
2023-02-04T23:32:13.953Z,51.00
2023-02-04T23:34:43.383Z,51.60
2023-02-04T23:37:11.406Z,51.00
2023-02-04T23:39:39.498Z,51.10
2023-02-04T23:42:07.638Z,51.10
2023-02-04T23:44:35.764Z,51.10
2023-02-04T23:47:03.806Z,51.10
2023-02-04T23:49:31.873Z,51.20
2023-02-04T23:52:01.826Z,51.10
2023-02-04T23:54:30.059Z,51.20
2023-02-04T23:56:58.185Z,51.20
2023-02-04T23:59:26.486Z,51.30
